Time;durP1;ratioP1;P1;durP2;ratioP2;P2;SDS_P1;SDS_P2;PMS_P1;PMS_P2;Temp;Humidity;BMP_temperature;BMP_pressure;BME280_temperature;BME280_humidity;BME280_pressure;Samples;Min_cycle;Max_cycle;Signal;HPM_P1;HPM_P2
2022/02/05 00:03:25;;;;;;;17.10;5.30;;;10.20;82.50;;;;;;5067664;28;20023;-78
2022/02/05 00:05:37;;;;;;;68.60;8.43;;;10.20;82.50;;;;;;5049464;28;20024;-78
2022/02/05 00:40:47;;;;;;;9.32;4.28;;;10.20;82.50;;;;;;5059580;28;20402;-79
2022/02/05 00:43:15;;;;;;;9.02;4.15;;;10.20;82.50;;;;;;5056264;28;20113;-78
2022/02/05 00:45:45;;;;;;;9.63;4.53;;;10.20;82.50;;;;;;5073236;28;20008;-78
2022/02/05 00:48:12;;;;;;;8.85;4.50;;;10.20;82.40;;;;;;5074221;28;20094;-78
2022/02/05 00:50:42;;;;;;;9.35;4.55;;;10.20;82.50;;;;;;5055987;28;20533;-78
2022/02/05 00:53:22;;;;;;;8.52;4.40;;;10.20;82.50;;;;;;5053942;28;20024;-77
2022/02/05 00:55:55;;;;;;;8.30;3.95;;;10.20;82.50;;;;;;5035777;28;20120;-77
2022/02/05 00:58:21;;;;;;;8.52;4.07;;;10.20;82.40;;;;;;5036019;28;20017;-77
2022/02/05 01:00:46;;;;;;;6.88;4.15;;;10.20;82.40;;;;;;5040392;28;20031;-77
2022/02/05 01:03:12;;;;;;;9.73;4.18;;;10.20;82.40;;;;;;5047287;28;20012;-78
2022/02/05 01:05:38;;;;;;;7.60;3.83;;;10.20;82.40;;;;;;5057371;28;20061;-78
2022/02/05 01:08:04;;;;;;;10.00;4.63;;;10.20;82.40;;;;;;5067862;28;20017;-78
2022/02/05 01:10:30;;;;;;;8.98;4.07;;;10.20;82.40;;;;;;5055417;28;20021;-78
2022/02/05 01:13:01;;;;;;;7.15;3.90;;;10.20;82.40;;;;;;5035621;28;20028;-78
2022/02/05 01:15:34;;;;;;;7.45;4.10;;;10.20;83.00;;;;;;5070620;28;20473;-78
2022/02/05 01:18:03;;;;;;;8.15;3.95;;;10.20;82.40;;;;;;5042995;28;20028;-77
2022/02/05 01:23:01;;;;;;;9.00;4.30;;;10.20;82.30;;;;;;5059631;28;20013;-78
2022/02/05 01:25:33;;;;;;;8.65;3.97;;;10.20;82.40;;;;;;5039621;28;20067;-78
2022/02/05 01:28:06;;;;;;;6.93;3.80;;;10.20;82.40;;;;;;5067045;28;20082;-77
2022/02/05 01:30:36;;;;;;;8.57;3.55;;;10.20;82.40;;;;;;5071370;28;20020;-77
2022/02/05 01:35:58;;;;;;;9.32;4.22;;;10.20;82.40;;;;;;5069498;28;20028;-77
2022/02/05 01:52:18;;;;;;;7.75;3.90;;;10.20;82.30;;;;;;5073463;28;20025;-78
2022/02/05 01:55:07;;;;;;;7.95;4.07;;;10.20;82.20;;;;;;5051470;28;20029;-78
2022/02/05 01:57:52;;;;;;;7.45;3.63;;;10.20;82.10;;;;;;5043868;28;20052;-78
2022/02/05 02:06:31;;;;;;;7.43;4.10;;;10.20;82.10;;;;;;5053276;28;20679;-78
2022/02/05 02:11:40;;;;;;;7.43;3.90;;;10.20;82.00;;;;;;5062168;28;20031;-77
2022/02/05 02:22:18;;;;;;;7.32;3.92;;;10.20;82.10;;;;;;5057972;28;20013;-78
2022/02/05 02:25:09;;;;;;;11.07;4.65;;;10.20;82.10;;;;;;5045723;28;20020;-77
2022/02/05 02:27:46;;;;;;;11.18;4.47;;;10.20;82.00;;;;;;5054946;28;20043;-78
2022/02/05 02:30:23;;;;;;;9.52;4.13;;;10.20;82.10;;;;;;5062765;28;20021;-78
2022/02/05 02:32:56;;;;;;;9.70;4.07;;;10.20;82.60;;;;;;5054880;28;20025;-77
2022/02/05 02:35:26;;;;;;;9.23;3.95;;;10.20;82.00;;;;;;5047489;28;20013;-78
2022/02/05 02:40:59;;;;;;;7.15;4.15;;;10.10;82.00;;;;;;5063386;28;20024;-77
2022/02/05 02:43:17;;;;;;;8.52;4.25;;;10.10;81.90;;;;;;5068291;28;20121;-78
2022/02/05 02:45:45;;;;;;;6.85;3.88;;;10.10;81.90;;;;;;5050883;28;20031;-78
2022/02/05 02:48:11;;;;;;;9.50;4.45;;;10.10;81.90;;;;;;5035582;28;20020;-78
2022/02/05 02:58:50;;;;;;;8.13;4.00;;;10.20;81.90;;;;;;5061372;28;20017;-79
2022/02/05 03:01:19;;;;;;;8.80;4.07;;;10.10;81.90;;;;;;5072416;28;20468;-78
2022/02/05 03:03:45;;;;;;;8.63;4.10;;;10.10;81.90;;;;;;5051844;28;20043;-79
2022/02/05 03:06:11;;;;;;;8.73;3.92;;;10.10;81.80;;;;;;5050028;28;20116;-78
2022/02/05 03:08:37;;;;;;;9.15;4.10;;;10.10;81.80;;;;;;5068681;28;20067;-78
2022/02/05 03:11:02;;;;;;;7.93;3.90;;;10.10;81.80;;;;;;5057936;28;20025;-79
2022/02/05 03:13:29;;;;;;;8.43;4.10;;;10.20;81.80;;;;;;5050024;28;20362;-79
2022/02/05 03:15:54;;;;;;;7.28;3.65;;;10.20;81.90;;;;;;5052466;28;20112;-78
2022/02/05 03:21:12;;;;;;;8.63;3.70;;;10.10;81.70;;;;;;5032175;28;20028;-79
2022/02/05 03:23:38;;;;;;;7.53;3.70;;;10.10;81.70;;;;;;5037722;28;20021;-79
2022/02/05 03:26:03;;;;;;;9.20;3.65;;;10.10;81.70;;;;;;5037318;28;20024;-79
2022/02/05 03:28:30;;;;;;;7.60;3.50;;;10.20;81.70;;;;;;5037290;28;20017;-79
2022/02/05 03:30:56;;;;;;;8.38;3.40;;;10.10;81.60;;;;;;5053144;28;20032;-78
2022/02/05 03:33:22;;;;;;;7.50;3.45;;;10.10;81.60;;;;;;5045001;28;20383;-77
2022/02/05 03:35:47;;;;;;;7.50;3.72;;;10.10;81.70;;;;;;5037452;28;20102;-78
2022/02/05 03:38:13;;;;;;;7.93;3.97;;;10.10;81.70;;;;;;5049176;28;20029;-78
2022/02/05 03:40:38;;;;;;;7.18;3.60;;;10.10;81.70;;;;;;5075230;28;20079;-78
2022/02/05 03:43:04;;;;;;;5.90;3.20;;;10.10;81.60;;;;;;5055866;28;20051;-78
2022/02/05 03:45:32;;;;;;;8.32;3.60;;;10.10;81.60;;;;;;5069743;28;20051;-79
2022/02/05 03:47:58;;;;;;;10.27;3.47;;;10.10;81.60;;;;;;5075278;28;20027;-78
2022/02/05 03:50:24;;;;;;;7.13;3.40;;;10.10;81.50;;;;;;5077097;28;20024;-79
2022/02/05 03:52:49;;;;;;;8.48;3.60;;;10.10;81.60;;;;;;5076875;28;20028;-79
2022/02/05 03:55:15;;;;;;;7.00;3.40;;;10.10;81.50;;;;;;5072881;28;20012;-79
2022/02/05 03:57:40;;;;;;;6.95;3.30;;;10.10;81.50;;;;;;5056681;28;20027;-79
2022/02/05 04:00:08;;;;;;;9.85;3.53;;;10.10;81.50;;;;;;5074517;28;20366;-79
2022/02/05 04:02:38;;;;;;;7.18;3.25;;;10.10;81.40;;;;;;5074508;28;20012;-78
2022/02/05 04:05:05;;;;;;;7.05;3.50;;;10.10;81.40;;;;;;5055972;28;20012;-79
2022/02/05 04:07:34;;;;;;;11.57;3.72;;;10.10;81.40;;;;;;5074070;28;20027;-78
2022/02/05 04:10:03;;;;;;;7.90;3.47;;;10.10;81.40;;;;;;5056567;28;20025;-79
2022/02/05 04:17:57;;;;;;;8.43;3.53;;;10.10;81.30;;;;;;5074355;28;20568;-78
2022/02/05 04:20:23;;;;;;;10.13;3.55;;;10.10;81.30;;;;;;5056444;28;20021;-78
2022/02/05 04:22:49;;;;;;;7.82;3.35;;;10.10;81.40;;;;;;5056261;28;20073;-78
2022/02/05 04:25:14;;;;;;;8.43;3.42;;;10.10;81.40;;;;;;5056294;28;20021;-79
2022/02/05 04:27:40;;;;;;;6.85;3.47;;;10.10;81.30;;;;;;5056118;28;20027;-78
2022/02/05 04:30:06;;;;;;;9.90;3.78;;;10.10;81.30;;;;;;5055846;28;20025;-78
2022/02/05 04:32:32;;;;;;;8.20;3.60;;;10.10;81.30;;;;;;5056396;28;20045;-78
2022/02/05 04:34:57;;;;;;;8.18;3.42;;;10.10;81.30;;;;;;5056208;28;20017;-78
2022/02/05 04:37:25;;;;;;;7.47;3.53;;;10.10;81.30;;;;;;5055886;28;20054;-78
2022/02/05 04:40:05;;;;;;;8.25;3.38;;;10.10;81.20;;;;;;5098698;23;20049;-78
2022/02/05 04:42:43;;;;;;;11.77;3.80;;;10.10;81.30;;;;;;5042015;28;20021;-78
2022/02/05 04:45:38;;;;;;;9.57;3.45;;;10.10;81.30;;;;;;5056894;28;20692;-78
2022/02/05 04:53:53;;;;;;;9.32;4.18;;;10.10;81.30;;;;;;5036077;28;20032;-77
2022/02/05 05:02:06;;;;;;;9.27;3.55;;;10.10;81.20;;;;;;5035098;28;20438;-78
2022/02/05 05:09:54;;;;;;;10.13;4.07;;;10.10;81.20;;;;;;5016030;28;20113;-78
2022/02/05 05:12:33;;;;;;;9.65;3.92;;;10.10;81.20;;;;;;5016266;28;20026;-77
2022/02/05 05:20:51;;;;;;;10.57;4.50;;;10.10;81.10;;;;;;5033223;28;20053;-78
2022/02/05 05:23:16;;;;;;;10.13;3.60;;;10.10;81.10;;;;;;5033829;28;20029;-77
2022/02/05 05:25:42;;;;;;;7.90;3.90;;;10.10;81.10;;;;;;5033902;28;20474;-78
2022/02/05 05:28:07;;;;;;;9.18;4.15;;;10.10;81.10;;;;;;5033477;28;20403;-78
2022/02/05 05:30:33;;;;;;;8.18;3.90;;;10.10;81.10;;;;;;5034686;28;20068;-78
2022/02/05 05:32:58;;;;;;;8.20;3.80;;;10.10;81.10;;;;;;5034411;28;20084;-78
2022/02/05 05:35:24;;;;;;;8.15;3.70;;;10.00;81.10;;;;;;5035707;28;20021;-78
2022/02/05 05:37:50;;;;;;;8.15;3.60;;;10.00;81.10;;;;;;5038387;28;20030;-78
2022/02/05 05:40:16;;;;;;;6.80;3.47;;;10.10;81.20;;;;;;5035332;28;20021;-77
2022/02/05 05:42:47;;;;;;;7.57;3.92;;;10.10;81.10;;;;;;5035350;28;20027;-78
2022/02/05 05:48:14;;;;;;;8.00;3.72;;;10.00;81.00;;;;;;5035826;28;20025;-78
2022/02/05 05:53:14;;;;;;;7.80;3.90;;;10.10;81.00;;;;;;5030046;28;20387;-77
2022/02/05 05:55:45;;;;;;;7.07;3.60;;;10.00;80.90;;;;;;5035851;28;20033;-78
2022/02/05 05:58:12;;;;;;;9.55;3.70;;;10.10;81.00;;;;;;5033066;28;20117;-78
2022/02/05 06:00:39;;;;;;;9.38;3.85;;;10.10;81.00;;;;;;5034005;28;20026;-77
2022/02/05 06:03:05;;;;;;;9.18;3.95;;;10.00;80.90;;;;;;5035158;28;20022;-78
2022/02/05 06:05:32;;;;;;;8.00;3.88;;;10.10;81.00;;;;;;5036197;28;20022;-78
2022/02/05 06:07:57;;;;;;;7.57;3.80;;;10.10;80.90;;;;;;5034354;28;20074;-77
2022/02/05 06:10:23;;;;;;;10.30;3.85;;;10.00;80.90;;;;;;5020254;28;20397;-78
2022/02/05 06:12:48;;;;;;;9.65;3.60;;;10.10;80.90;;;;;;5034136;28;20556;-78
2022/02/05 06:15:14;;;;;;;8.27;3.70;;;10.00;80.90;;;;;;5031794;28;20021;-77
2022/02/05 06:17:40;;;;;;;7.70;3.72;;;10.10;80.90;;;;;;5029246;28;20030;-76
2022/02/05 06:20:07;;;;;;;6.47;3.58;;;10.10;80.90;;;;;;5027694;28;20387;-77
2022/02/05 06:22:33;;;;;;;7.90;3.50;;;10.10;81.00;;;;;;5025542;28;20018;-78
2022/02/05 06:24:59;;;;;;;6.80;3.70;;;10.10;80.90;;;;;;5028254;28;20040;-77
2022/02/05 06:27:24;;;;;;;8.15;3.47;;;10.00;80.80;;;;;;5029963;28;20033;-78
2022/02/05 06:29:50;;;;;;;7.78;3.78;;;10.00;80.80;;;;;;5031276;28;20036;-77
2022/02/05 06:32:17;;;;;;;8.85;3.47;;;10.10;80.80;;;;;;5034580;28;20077;-78
2022/02/05 06:34:44;;;;;;;10.55;4.68;;;10.00;80.80;;;;;;5034128;28;20047;-77
2022/02/05 06:37:09;;;;;;;9.07;3.88;;;10.00;80.80;;;;;;5032846;28;20033;-77
2022/02/05 06:39:35;;;;;;;10.45;3.67;;;10.20;80.90;;;;;;5037870;28;20036;-78
2022/02/05 06:42:00;;;;;;;9.25;4.18;;;10.00;80.80;;;;;;5038319;28;20049;-78
2022/02/05 06:44:26;;;;;;;8.93;3.75;;;10.10;80.90;;;;;;5034120;28;20021;-77
2022/02/05 06:46:52;;;;;;;7.07;3.50;;;10.00;80.80;;;;;;5034490;28;20033;-76
2022/02/05 06:49:18;;;;;;;7.90;3.45;;;10.10;80.80;;;;;;5033974;28;20026;-76
2022/02/05 06:51:43;;;;;;;8.50;3.75;;;10.10;80.80;;;;;;5047014;28;20681;-78
2022/02/05 06:54:09;;;;;;;8.43;3.97;;;10.00;80.80;;;;;;5033325;28;20036;-78
2022/02/05 06:56:34;;;;;;;9.00;3.70;;;10.00;80.80;;;;;;5033141;28;20064;-77
2022/02/05 06:59:00;;;;;;;7.88;3.60;;;10.00;80.80;;;;;;5031164;28;20025;-77
2022/02/05 07:01:25;;;;;;;7.82;3.65;;;10.00;80.80;;;;;;5032981;28;20040;-77
2022/02/05 07:03:51;;;;;;;9.93;3.53;;;10.00;81.30;;;;;;5032392;28;20417;-77
2022/02/05 07:06:16;;;;;;;10.15;3.95;;;10.10;81.00;;;;;;5048982;28;20477;-75
2022/02/05 07:08:43;;;;;;;11.45;3.90;;;10.00;80.80;;;;;;5049128;28;20623;-77
2022/02/05 07:11:08;;;;;;;6.80;3.70;;;10.10;80.80;;;;;;5029722;28;20053;-77
2022/02/05 07:13:34;;;;;;;9.50;3.85;;;10.00;80.70;;;;;;5013746;28;20426;-77
2022/02/05 07:16:08;;;;;;;11.93;3.50;;;10.00;80.70;;;;;;5014979;28;20510;-76
2022/02/05 07:18:46;;;;;;;11.93;3.40;;;10.00;80.70;;;;;;5030875;28;20025;-78
2022/02/05 07:21:16;;;;;;;12.23;3.78;;;10.00;80.70;;;;;;5029007;28;20028;-78
2022/02/05 07:23:55;;;;;;;12.07;3.60;;;10.00;80.60;;;;;;5013989;28;20080;-77
2022/02/05 07:29:16;;;;;;;10.05;3.60;;;10.00;80.60;;;;;;5032387;28;20630;-77
2022/02/05 07:31:47;;;;;;;10.00;3.50;;;10.00;80.70;;;;;;5042001;28;20041;-77
2022/02/05 07:34:15;;;;;;;14.50;3.95;;;10.10;80.60;;;;;;5046894;28;20033;-78
2022/02/05 07:36:41;;;;;;;11.75;3.50;;;10.10;80.10;;;;;;5030489;28;20402;-77
2022/02/05 07:39:07;;;;;;;10.20;3.80;;;10.00;80.30;;;;;;5032010;28;20108;-78
2022/02/05 07:41:35;;;;;;;12.93;4.00;;;10.00;80.40;;;;;;5030316;28;20026;-78
2022/02/05 07:44:01;;;;;;;8.20;3.65;;;10.00;80.40;;;;;;5030666;28;20048;-77
2022/02/05 07:46:27;;;;;;;10.07;3.85;;;10.00;80.40;;;;;;5028690;28;20487;-78
2022/02/05 07:48:53;;;;;;;9.90;4.22;;;10.10;80.40;;;;;;5031217;28;20101;-76
2022/02/05 07:51:19;;;;;;;10.80;3.70;;;10.10;80.30;;;;;;5031029;28;20040;-78
2022/02/05 07:53:45;;;;;;;9.13;3.30;;;10.10;80.20;;;;;;5046412;28;20032;-77
2022/02/05 07:56:11;;;;;;;9.90;3.70;;;10.10;80.10;;;;;;5028366;28;20026;-75
2022/02/05 07:58:37;;;;;;;10.57;3.45;;;10.20;80.00;;;;;;5027634;28;20236;-76
2022/02/05 08:01:04;;;;;;;10.38;3.63;;;10.20;79.80;;;;;;5027270;28;20861;-76
2022/02/05 08:03:30;;;;;;;8.45;3.20;;;10.30;79.60;;;;;;5027443;28;20022;-76
2022/02/05 08:05:58;;;;;;;9.18;3.90;;;10.30;79.50;;;;;;5028791;28;20088;-76
2022/02/05 08:08:27;;;;;;;8.32;3.95;;;10.30;79.30;;;;;;5027334;28;20025;-75
2022/02/05 08:10:59;;;;;;;9.95;3.80;;;10.30;79.30;;;;;;5028395;28;20029;-75
2022/02/05 08:13:27;;;;;;;8.40;3.28;;;10.40;79.30;;;;;;5028363;28;20028;-75
2022/02/05 08:15:57;;;;;;;7.53;3.28;;;10.30;79.30;;;;;;5043627;28;20041;-75
2022/02/05 08:18:23;;;;;;;9.23;3.42;;;10.30;79.20;;;;;;5027295;28;20029;-75
2022/02/05 08:20:49;;;;;;;10.32;4.25;;;10.40;79.20;;;;;;5027898;28;20088;-77
2022/02/05 08:23:14;;;;;;;10.57;3.70;;;10.40;79.30;;;;;;5027175;28;20022;-76
2022/02/05 08:25:40;;;;;;;8.30;3.53;;;10.40;79.10;;;;;;5043134;28;20021;-76
2022/02/05 08:28:05;;;;;;;7.38;3.40;;;10.40;79.10;;;;;;5043509;28;20034;-75
2022/02/05 08:30:31;;;;;;;10.02;3.40;;;10.40;78.90;;;;;;5027715;28;20056;-74
2022/02/05 08:32:59;;;;;;;10.70;3.75;;;10.40;79.00;;;;;;5027049;28;20083;-76
2022/02/05 08:35:24;;;;;;;9.48;3.80;;;10.40;79.00;;;;;;5026782;28;20029;-75
2022/02/05 08:37:52;;;;;;;9.38;3.35;;;10.40;78.80;;;;;;5027075;28;20083;-76
2022/02/05 08:40:17;;;;;;;7.18;3.30;;;10.40;78.90;;;;;;5042874;28;20033;-76
2022/02/05 08:42:43;;;;;;;8.68;3.50;;;10.50;78.80;;;;;;5027906;28;20036;-74
2022/02/05 08:45:09;;;;;;;11.85;3.70;;;10.50;78.80;;;;;;5027981;28;20037;-76
2022/02/05 08:47:35;;;;;;;6.93;3.08;;;10.50;78.70;;;;;;5043205;28;20393;-75
2022/02/05 08:50:01;;;;;;;9.48;3.60;;;10.50;78.70;;;;;;5027133;28;20026;-75
2022/02/05 08:52:27;;;;;;;7.60;3.75;;;10.50;78.70;;;;;;5027044;28;20103;-74
2022/02/05 08:54:53;;;;;;;9.20;3.58;;;10.50;78.70;;;;;;5026409;28;20120;-76
2022/02/05 08:57:18;;;;;;;8.95;3.53;;;10.50;78.50;;;;;;5026111;28;20029;-74
2022/02/05 08:59:58;;;;;;;8.25;3.53;;;10.50;78.50;;;;;;5027122;28;20029;-75
2022/02/05 09:05:04;;;;;;;8.38;3.55;;;10.60;78.40;;;;;;5027615;28;20637;-73
2022/02/05 09:07:30;;;;;;;8.27;3.35;;;10.60;78.20;;;;;;5026902;28;20029;-77
2022/02/05 09:14:56;;;;;;;9.38;3.72;;;10.70;77.80;;;;;;5026601;28;20033;-76
2022/02/05 09:17:22;;;;;;;9.02;3.47;;;10.80;77.70;;;;;;5025332;28;20079;-74
2022/02/05 09:19:49;;;;;;;8.60;3.40;;;10.80;77.60;;;;;;5042166;28;20021;-75
2022/02/05 09:22:14;;;;;;;6.65;3.40;;;10.80;77.50;;;;;;5025386;28;20446;-74
2022/02/05 09:24:40;;;;;;;8.30;3.63;;;10.80;77.30;;;;;;5026754;28;20026;-74
2022/02/05 09:27:09;;;;;;;9.25;3.33;;;10.80;77.40;;;;;;5041925;28;20076;-75
2022/02/05 09:29:43;;;;;;;7.63;3.28;;;10.70;77.50;;;;;;5024981;28;20079;-75
2022/02/05 09:32:08;;;;;;;7.80;3.45;;;10.70;77.70;;;;;;5025695;28;20035;-75
2022/02/05 09:34:34;;;;;;;9.38;3.65;;;10.70;77.80;;;;;;5026671;28;20083;-75
2022/02/05 09:36:59;;;;;;;8.73;3.90;;;10.70;77.90;;;;;;5026623;28;20451;-75
2022/02/05 09:39:25;;;;;;;9.02;3.95;;;10.60;77.90;;;;;;5025912;28;20037;-74
2022/02/05 09:41:51;;;;;;;9.32;3.47;;;10.60;78.00;;;;;;5026679;28;20507;-76
2022/02/05 09:44:17;;;;;;;8.48;3.50;;;10.60;78.10;;;;;;5026663;28;20113;-75
2022/02/05 09:46:42;;;;;;;8.82;3.63;;;10.60;78.10;;;;;;5026723;28;20479;-76
2022/02/05 09:49:08;;;;;;;8.52;3.40;;;10.60;78.20;;;;;;5041585;28;20080;-74
2022/02/05 09:51:40;;;;;;;8.05;3.53;;;10.60;78.10;;;;;;5026236;28;20030;-75
2022/02/05 09:54:08;;;;;;;8.27;3.33;;;10.60;78.20;;;;;;5042011;28;20026;-75
2022/02/05 09:56:35;;;;;;;8.15;3.60;;;10.60;78.30;;;;;;5026335;28;20117;-76
2022/02/05 09:59:01;;;;;;;8.70;3.90;;;10.60;78.40;;;;;;5024908;28;20394;-74
2022/02/05 10:01:29;;;;;;;8.23;3.30;;;10.60;78.50;;;;;;5024910;28;20017;-75
2022/02/05 10:03:56;;;;;;;7.40;3.38;;;10.60;78.30;;;;;;5025921;28;20109;-75
2022/02/05 10:06:29;;;;;;;8.52;3.75;;;10.60;78.40;;;;;;5030388;28;20025;-74
2022/02/05 10:09:12;;;;;;;7.45;3.50;;;10.60;78.20;;;;;;5045386;28;20529;-75
2022/02/05 10:11:49;;;;;;;7.03;3.40;;;10.70;78.10;;;;;;5045564;28;20091;-75
2022/02/05 10:14:25;;;;;;;8.15;3.60;;;10.60;78.20;;;;;;5028841;28;20029;-74
2022/02/05 10:16:59;;;;;;;7.60;3.42;;;10.60;78.30;;;;;;5029577;28;20028;-73
2022/02/05 10:19:47;;;;;;;8.07;3.67;;;10.60;78.20;;;;;;5027793;28;20247;-74
2022/02/05 10:22:13;;;;;;;7.38;3.70;;;10.60;78.30;;;;;;5028513;28;20065;-75
2022/02/05 10:24:56;;;;;;;7.80;3.55;;;10.60;78.40;;;;;;5030241;28;20092;-75
2022/02/05 10:27:39;;;;;;;11.70;3.63;;;10.60;78.10;;;;;;5045337;28;20421;-75
2022/02/05 10:30:22;;;;;;;7.18;3.10;;;10.60;78.30;;;;;;5029593;28;20048;-75
2022/02/05 10:32:59;;;;;;;9.25;3.67;;;10.70;78.30;;;;;;5029895;28;20045;-74
2022/02/05 10:35:39;;;;;;;8.45;3.50;;;10.60;78.20;;;;;;5028732;28;20121;-76
2022/02/05 10:41:01;;;;;;;7.30;2.95;;;10.60;78.20;;;;;;5029476;28;20034;-75
2022/02/05 10:43:34;;;;;;;;;;;10.60;78.40;;;;;;5030282;28;20113;-75
2022/02/05 10:46:02;;;;;;;8.23;3.33;;;10.60;78.60;;;;;;5028411;28;19946;-74
2022/02/05 10:48:28;;;;;;;8.85;3.65;;;10.60;78.60;;;;;;5029473;28;20029;-74
2022/02/05 10:50:56;;;;;;;8.23;3.22;;;10.60;78.30;;;;;;5027908;28;20029;-76
2022/02/05 10:53:31;;;;;;;17.50;3.97;;;10.60;78.40;;;;;;5028306;28;20479;-75
2022/02/05 10:56:07;;;;;;;12.77;3.58;;;10.70;78.20;;;;;;5045989;28;20693;-76
2022/02/05 11:06:58;;;;;;;12.77;3.33;;;10.80;77.30;;;;;;5029741;28;20041;-76
2022/02/05 11:09:24;;;;;;;6.95;3.17;;;10.80;77.50;;;;;;5027832;28;20029;-76
2022/02/05 11:20:17;;;;;;;7.78;2.92;;;10.60;78.20;;;;;;5028041;28;20029;-73
2022/02/05 11:22:45;;;;;;;11.15;3.45;;;10.60;78.20;;;;;;5043508;28;20045;-72
2022/02/05 11:25:13;;;;;;;9.07;3.40;;;10.60;78.20;;;;;;5026980;28;20021;-73
2022/02/05 11:27:51;;;;;;;10.68;3.28;;;10.60;78.20;;;;;;5028165;28;20037;-73
2022/02/05 11:30:35;;;;;;;10.32;3.60;;;10.60;78.50;;;;;;5043223;28;20029;-73
2022/02/05 11:33:06;;;;;;;13.43;3.50;;;10.60;78.60;;;;;;5026828;28;20120;-73
2022/02/05 11:36:08;;;;;;;15.57;3.20;;;10.50;78.60;;;;;;5026895;28;20032;-74
2022/02/05 11:38:34;;;;;;;11.32;2.72;;;10.50;78.60;;;;;;5028128;28;20044;-75
2022/02/05 11:41:02;;;;;;;11.27;3.30;;;10.50;78.70;;;;;;5028019;28;20076;-74
2022/02/05 11:43:29;;;;;;;11.90;3.45;;;10.50;78.80;;;;;;5043730;28;20033;-71
2022/02/05 11:46:04;;;;;;;11.27;3.35;;;10.50;78.80;;;;;;5026678;28;20084;-73
2022/02/05 11:48:55;;;;;;;9.27;3.10;;;10.50;78.90;;;;;;5027657;28;20079;-72
2022/02/05 11:51:42;;;;;;;9.43;3.20;;;10.50;78.80;;;;;;5027641;28;20021;-73
2022/02/05 11:54:14;;;;;;;8.80;3.03;;;10.50;78.70;;;;;;5026295;28;20025;-73
2022/02/05 11:56:49;;;;;;;;;;;10.50;78.70;;;;;;5026910;28;20040;-73
2022/02/05 11:59:16;;;;;;;9.88;2.78;;;10.50;78.70;;;;;;5026393;28;19916;-72
2022/02/05 12:01:44;;;;;;;14.10;3.13;;;10.50;78.70;;;;;;5027740;28;20080;-74
2022/02/05 12:04:23;;;;;;;7.35;2.95;;;10.50;78.60;;;;;;5024657;28;20029;-73
2022/02/05 12:06:52;;;;;;;7.85;2.80;;;10.40;78.70;;;;;;5035675;28;20146;-74
2022/02/05 12:09:46;;;;;;;8.07;2.70;;;10.40;78.70;;;;;;5035112;28;20052;-71
2022/02/05 12:12:25;;;;;;;9.82;3.38;;;10.40;78.80;;;;;;5034638;28;20029;-74
2022/02/05 12:15:22;;;;;;;9.25;2.83;;;10.50;78.90;;;;;;5030321;28;20079;-74
2022/02/05 12:18:04;;;;;;;10.13;3.20;;;10.40;78.90;;;;;;5017790;28;20034;-74
2022/02/05 12:20:33;;;;;;;11.30;3.45;;;10.40;79.10;;;;;;5034931;28;20033;-72
2022/02/05 12:25:53;;;;;;;50.05;7.30;;;10.40;80.00;;;;;;5026646;28;20018;-74
2022/02/05 12:28:38;;;;;;;16.48;3.47;;;10.40;83.60;;;;;;5019068;28;20703;-72
2022/02/05 12:31:25;;;;;;;17.77;3.85;;;10.40;79.80;;;;;;5017285;28;20028;-74
2022/02/05 12:34:11;;;;;;;12.07;3.00;;;10.40;79.00;;;;;;4984243;28;20395;-73
2022/02/05 12:36:42;;;;;;;14.18;3.30;;;10.40;78.60;;;;;;4999965;28;20091;-73
2022/02/05 12:39:11;;;;;;;8.67;2.83;;;10.50;78.80;;;;;;5023652;28;20299;-72
2022/02/05 12:41:44;;;;;;;12.20;3.20;;;10.50;78.50;;;;;;5005281;28;20029;-73
2022/02/05 12:44:10;;;;;;;13.60;3.17;;;10.50;78.40;;;;;;5025852;28;20048;-73
2022/02/05 12:46:45;;;;;;;12.73;3.17;;;10.50;78.30;;;;;;5009193;28;20026;-75
2022/02/05 12:51:58;;;;;;;11.10;3.72;;;10.50;78.40;;;;;;5027127;28;20060;-73
2022/02/05 12:54:27;;;;;;;13.00;2.72;;;10.50;78.40;;;;;;5009207;28;20056;-74
2022/02/05 12:56:54;;;;;;;12.52;3.60;;;10.60;78.40;;;;;;5008817;28;20029;-73
2022/02/05 12:59:27;;;;;;;11.02;2.90;;;10.60;78.50;;;;;;5008824;28;20030;-74
2022/02/05 13:01:58;;;;;;;8.75;3.28;;;10.60;79.60;;;;;;5026399;28;20859;-76
2022/02/05 13:04:49;;;;;;;12.18;3.60;;;10.60;78.60;;;;;;5046061;28;20379;-74
2022/02/05 13:07:22;;;;;;;28.33;4.38;;;10.70;79.60;;;;;;5037282;28;20491;-74
2022/02/05 13:09:55;;;;;;;15.57;3.35;;;10.70;80.20;;;;;;5015884;28;20521;-73
2022/02/05 13:12:33;;;;;;;18.25;3.40;;;10.70;80.10;;;;;;5012593;28;20030;-76
2022/02/05 13:15:27;;;;;;;12.82;3.10;;;10.80;80.90;;;;;;5015434;28;20032;-75
2022/02/05 13:26:04;;;;;;;11.80;3.47;;;10.90;82.90;;;;;;5006806;28;20036;-75
2022/02/05 13:36:17;;;;;;;14.23;3.13;;;11.10;82.00;;;;;;5025519;28;20029;-75
2022/02/05 13:42:21;;;;;;;10.88;3.05;;;11.10;82.30;;;;;;5018999;28;20021;-75
2022/02/05 13:44:40;;;;;;;7.35;2.75;;;11.10;82.50;;;;;;5006495;28;20040;-76
2022/02/05 13:47:11;;;;;;;11.15;3.45;;;11.20;80.70;;;;;;5018393;28;20040;-75
2022/02/05 13:49:37;;;;;;;10.68;2.70;;;11.20;81.20;;;;;;5001236;28;20091;-75
2022/02/05 13:52:08;;;;;;;10.95;3.75;;;11.20;81.20;;;;;;5020939;28;20264;-76
2022/02/05 13:54:39;;;;;;;13.68;3.38;;;11.20;81.00;;;;;;5001390;28;20042;-75
2022/02/05 13:57:05;;;;;;;;;;;11.20;80.40;;;;;;5014626;28;20058;-74
2022/02/05 13:59:34;;;;;;;11.18;3.00;;;11.20;79.40;;;;;;5024149;28;19971;-75
2022/02/05 14:02:14;;;;;;;18.40;3.53;;;11.30;79.80;;;;;;5024073;28;20391;-75
2022/02/05 14:04:40;;;;;;;20.90;2.97;;;11.30;78.80;;;;;;5025544;28;20125;-75
2022/02/05 14:07:06;;;;;;;18.48;3.33;;;11.30;79.10;;;;;;5025479;28;20033;-75
2022/02/05 14:09:33;;;;;;;14.02;3.00;;;11.20;79.10;;;;;;5033364;28;20036;-75
2022/02/05 14:12:17;;;;;;;13.25;3.47;;;11.20;78.90;;;;;;5045252;28;20705;-74
2022/02/05 14:14:43;;;;;;;14.93;4.10;;;11.20;78.60;;;;;;5026929;28;20393;-75
2022/02/05 14:17:18;;;;;;;11.20;3.25;;;11.20;78.00;;;;;;5044634;28;20028;-73
2022/02/05 14:19:45;;;;;;;13.27;3.20;;;11.20;78.50;;;;;;5043988;28;20650;-75
2022/02/05 14:22:19;;;;;;;10.20;2.55;;;11.10;78.00;;;;;;5044484;28;20025;-75
2022/02/05 14:24:44;;;;;;;8.77;2.58;;;11.10;77.80;;;;;;5044038;28;20025;-74
2022/02/05 14:27:16;;;;;;;12.52;2.83;;;11.10;77.70;;;;;;5043820;28;20037;-72
2022/02/05 14:32:22;;;;;;;16.38;2.97;;;11.20;77.50;;;;;;5044994;28;20025;-76
2022/02/05 14:35:06;;;;;;;18.77;3.22;;;11.30;77.00;;;;;;5045246;28;20068;-75
2022/02/05 14:42:50;;;;;;;828.40;69.95;;;11.20;77.10;;;;;;5044612;28;20025;-72
2022/02/05 14:45:16;;;;;;;629.28;52.10;;;11.20;77.00;;;;;;5025076;28;20079;-75
2022/02/05 14:47:41;;;;;;;408.15;30.33;;;11.20;76.50;;;;;;5006706;28;20544;-73
2022/02/05 14:50:08;;;;;;;298.95;22.10;;;11.10;76.60;;;;;;5008608;28;20128;-75
2022/02/05 14:52:34;;;;;;;181.90;14.75;;;11.10;76.90;;;;;;5027954;28;20061;-75
2022/02/05 14:54:59;;;;;;;113.65;10.50;;;11.10;76.80;;;;;;5011471;28;20368;-76
2022/02/05 14:57:25;;;;;;;108.50;8.38;;;11.00;76.80;;;;;;5011213;28;20083;-76
2022/02/05 14:59:50;;;;;;;48.95;6.07;;;11.00;76.70;;;;;;5011009;28;20026;-74
2022/02/05 15:02:16;;;;;;;50.10;5.03;;;11.00;76.70;;;;;;5012382;28;20022;-75
2022/02/05 15:04:44;;;;;;;48.75;4.90;;;11.00;76.80;;;;;;5027804;28;20031;-76
2022/02/05 15:07:10;;;;;;;41.78;4.32;;;10.90;76.70;;;;;;5008518;28;20025;-76
2022/02/05 15:09:36;;;;;;;38.15;4.47;;;10.90;76.80;;;;;;5010934;28;20665;-76
2022/02/05 15:12:02;;;;;;;39.20;4.25;;;10.80;76.60;;;;;;5034347;28;20501;-77
2022/02/05 15:14:27;;;;;;;39.28;4.57;;;10.80;76.70;;;;;;5027079;28;20029;-75
2022/02/05 15:16:53;;;;;;;29.85;4.60;;;10.80;76.80;;;;;;5027365;28;20029;-76
2022/02/05 15:19:18;;;;;;;26.20;3.58;;;10.80;76.50;;;;;;5035559;28;20078;-73
2022/02/05 15:21:44;;;;;;;37.38;4.38;;;10.80;76.80;;;;;;5034972;28;20736;-75
2022/02/05 15:24:10;;;;;;;39.83;5.38;;;10.80;76.40;;;;;;5007264;28;20040;-74
2022/02/05 15:26:37;;;;;;;35.65;4.13;;;10.80;76.70;;;;;;5025809;28;20124;-76
2022/02/05 15:29:06;;;;;;;34.30;4.10;;;10.70;75.40;;;;;;5010361;28;20037;-75
2022/02/05 15:31:32;;;;;;;32.67;3.95;;;10.70;75.30;;;;;;5027034;28;20159;-75
2022/02/05 15:33:59;;;;;;;22.70;4.57;;;10.70;75.40;;;;;;5028743;28;20036;-75
2022/02/05 15:36:40;;;;;;;28.10;4.85;;;10.60;75.30;;;;;;5026715;28;20399;-76
2022/02/05 15:44:37;;;;;;;22.85;3.40;;;10.60;74.80;;;;;;5028326;28;20032;-76
2022/02/05 15:47:03;;;;;;;19.38;3.28;;;10.60;75.30;;;;;;5026717;28;20031;-74
2022/02/05 15:49:29;;;;;;;20.42;3.22;;;10.60;75.60;;;;;;5026399;28;20029;-74
2022/02/05 15:51:57;;;;;;;15.05;2.88;;;10.60;75.80;;;;;;5026445;28;20043;-76
2022/02/05 15:54:26;;;;;;;16.90;2.80;;;10.60;75.90;;;;;;5027801;28;20399;-73
2022/02/05 15:59:48;;;;;;;13.82;3.15;;;10.60;76.30;;;;;;5027416;28;20406;-74
2022/02/05 16:02:13;;;;;;;17.02;3.28;;;10.60;76.30;;;;;;5027312;28;20030;-73
2022/02/05 16:04:38;;;;;;;12.43;2.63;;;10.50;76.30;;;;;;5010123;28;20021;-75